createdAt,value
2018-11-22T12:17:39.304Z,11.63
2018-11-22T12:20:09.474Z,11.55
2018-11-22T12:22:39.107Z,11.60
2018-11-22T12:25:09.810Z,13.15
2018-11-22T12:27:38.878Z,11.85
2018-11-22T12:30:10.935Z,13.30
2018-11-22T12:32:44.868Z,13.15
2018-11-22T12:35:17.918Z,14.80
2018-11-22T12:37:52.332Z,14.63
2018-11-22T12:40:21.174Z,15.03
2018-11-22T12:42:50.063Z,14.50
2018-11-22T12:45:18.998Z,13.72
2018-11-22T12:47:47.878Z,14.40
2018-11-22T12:50:16.835Z,13.85
2018-11-22T12:52:45.729Z,17.90
2018-11-22T12:55:14.659Z,14.75
2018-11-22T12:57:43.713Z,14.60
2018-11-22T13:00:14.606Z,14.20
2018-11-22T13:02:43.881Z,14.30
2018-11-22T13:05:14.138Z,15.03
2018-11-22T13:07:43.161Z,14.95
2018-11-22T13:10:13.659Z,14.43
2018-11-22T13:12:43.599Z,13.53
2018-11-22T13:15:14.130Z,14.47
2018-11-22T13:17:43.074Z,14.53
2018-11-22T13:20:13.239Z,15.53
2018-11-22T13:22:42.170Z,14.38
2018-11-22T13:25:13.371Z,14.78
2018-11-22T13:27:43.506Z,15.20
2018-11-22T13:30:28.647Z,15.03
2018-11-22T13:32:58.158Z,17.75
2018-11-22T13:35:27.000Z,17.32
2018-11-22T13:37:56.494Z,16.50
2018-11-22T13:40:25.564Z,15.08
2018-11-22T13:42:55.086Z,13.35
2018-11-22T13:45:26.363Z,13.78
2018-11-22T13:47:56.085Z,14.23
2018-11-22T13:50:27.021Z,14.85
2018-11-22T13:52:57.921Z,12.93
2018-11-22T13:55:26.846Z,12.90
2018-11-22T13:57:55.802Z,13.88
2018-11-22T14:00:26.209Z,13.85
2018-11-22T14:02:56.590Z,14.10
2018-11-22T14:05:25.497Z,13.98
2018-11-22T14:07:54.368Z,12.80
2018-11-22T14:10:23.422Z,13.78
2018-11-22T14:12:52.410Z,13.10
2018-11-22T14:15:22.644Z,15.30
2018-11-22T14:17:53.072Z,16.45
2018-11-22T14:20:24.269Z,15.13
2018-11-22T14:22:53.244Z,15.53
2018-11-22T14:25:22.219Z,15.38
2018-11-22T14:27:51.603Z,17.90
2018-11-22T14:30:21.892Z,17.10
2018-11-22T14:32:51.470Z,19.12
2018-11-22T14:35:21.132Z,17.52
2018-11-22T14:37:50.002Z,14.38
2018-11-22T14:40:21.278Z,15.13
2018-11-22T14:42:50.871Z,17.20
2018-11-22T14:45:20.032Z,17.98
2018-11-22T14:47:50.019Z,15.93
2018-11-22T14:50:27.659Z,16.45
2018-11-22T14:53:06.661Z,16.93
2018-11-22T14:55:35.548Z,18.25
2018-11-22T14:58:04.424Z,17.55
2018-11-22T15:00:33.381Z,17.27
2018-11-22T15:03:02.298Z,17.82
2018-11-22T15:05:31.170Z,20.37
2018-11-22T15:08:00.080Z,20.17
2018-11-22T15:10:28.948Z,20.05
2018-11-22T15:12:57.809Z,21.33
2018-11-22T15:15:27.630Z,22.27
2018-11-22T15:17:56.461Z,13.05
2018-11-22T15:20:25.286Z,19.42
2018-11-22T15:22:54.865Z,35.88
2018-11-22T15:25:25.272Z,20.27
2018-11-22T15:27:54.127Z,13.98
2018-11-22T15:30:25.422Z,14.07
2018-11-22T15:32:54.427Z,17.00
2018-11-22T15:35:24.782Z,14.80
2018-11-22T15:37:54.415Z,15.15
2018-11-22T15:40:24.333Z,15.38
2018-11-22T15:42:54.609Z,14.35
2018-11-22T15:45:24.989Z,14.28
2018-11-22T15:47:53.919Z,12.63
2018-11-22T15:50:24.166Z,13.65
2018-11-22T15:52:53.390Z,15.80
2018-11-22T15:55:22.910Z,17.10
2018-11-22T15:57:53.260Z,19.30
2018-11-22T16:00:25.969Z,20.17
2018-11-22T16:02:55.641Z,21.80
2018-11-22T16:05:25.546Z,24.52
2018-11-22T16:07:54.501Z,24.98
2018-11-22T16:10:26.811Z,24.60
2018-11-22T16:12:55.969Z,27.27
2018-11-22T16:15:29.829Z,27.55
2018-11-22T16:17:58.698Z,27.82
2018-11-22T16:20:27.542Z,30.05
2018-11-22T16:22:56.547Z,30.88
2018-11-22T16:25:25.449Z,28.23
2018-11-22T16:27:54.462Z,32.28
2018-11-22T16:30:24.777Z,32.83
2018-11-22T16:32:54.009Z,33.10
2018-11-22T16:35:23.749Z,32.60
2018-11-22T16:37:52.773Z,29.98
2018-11-22T16:40:23.281Z,28.05
2018-11-22T16:42:53.129Z,22.52
2018-11-22T16:45:23.477Z,17.23
2018-11-22T16:47:52.375Z,18.65
2018-11-22T16:50:22.817Z,19.48
2018-11-22T16:52:51.969Z,18.65
2018-11-22T16:55:21.359Z,20.25
2018-11-22T16:57:51.470Z,20.32
2018-11-22T17:00:22.957Z,18.62
2018-11-22T17:02:52.903Z,23.40
2018-11-22T17:05:22.003Z,21.33
2018-11-22T17:07:51.021Z,20.15
2018-11-22T17:10:21.346Z,24.35
2018-11-22T17:12:51.450Z,23.90
2018-11-22T17:15:21.509Z,20.17
2018-11-22T17:17:50.913Z,27.00
2018-11-22T17:20:20.765Z,26.75
2018-11-22T17:22:50.239Z,28.98
2018-11-22T17:25:20.626Z,24.05
2018-11-22T17:27:50.674Z,24.23
2018-11-22T17:30:22.126Z,25.25
2018-11-22T17:32:51.073Z,25.02
2018-11-22T17:35:21.526Z,20.75
2018-11-22T17:37:50.586Z,21.07
2018-11-22T17:40:23.592Z,20.05
2018-11-22T17:42:53.043Z,20.45
2018-11-22T17:45:25.180Z,21.60
2018-11-22T17:47:54.305Z,24.07
2018-11-22T17:50:24.753Z,22.60
2018-11-22T17:52:53.660Z,21.95
2018-11-22T17:55:24.035Z,21.60
2018-11-22T17:57:53.330Z,23.62
2018-11-22T18:00:24.753Z,27.62
2018-11-22T18:02:54.964Z,32.13
2018-11-22T18:05:27.253Z,32.15
2018-11-22T18:07:52.926Z,32.73
2018-11-22T18:10:23.553Z,30.60
2018-11-22T18:12:53.065Z,29.42
2018-11-22T18:15:22.581Z,29.65
2018-11-22T18:17:52.038Z,29.55
2018-11-22T18:20:22.480Z,29.12
2018-11-22T18:22:52.333Z,32.10
2018-11-22T18:25:22.829Z,31.77
2018-11-22T18:27:51.777Z,30.43
2018-11-22T18:30:28.237Z,32.30
2018-11-22T18:32:59.909Z,31.82
2018-11-22T18:35:28.927Z,31.45
2018-11-22T18:37:57.933Z,28.30
2018-11-22T18:40:28.448Z,28.67
2018-11-22T18:42:58.674Z,26.12
2018-11-22T18:45:34.487Z,25.88
2018-11-22T18:48:04.623Z,24.70
2018-11-22T18:50:34.413Z,22.70
2018-11-22T18:53:03.466Z,21.70
2018-11-22T18:55:32.389Z,19.95
2018-11-22T18:58:01.721Z,18.45
2018-11-22T19:00:31.913Z,18.40
2018-11-22T19:03:02.254Z,19.65
2018-11-22T19:05:31.374Z,22.30
2018-11-22T19:08:00.920Z,21.95
2018-11-22T19:10:31.279Z,20.92
2018-11-22T19:13:01.604Z,30.82
2018-11-22T19:15:31.835Z,30.30
2018-11-22T19:18:01.367Z,27.98
2018-11-22T19:20:36.546Z,25.08
2018-11-22T19:23:06.863Z,23.07
2018-11-22T19:25:35.737Z,24.18
2018-11-22T19:28:05.482Z,25.68
2018-11-22T19:30:43.060Z,26.30
2018-11-22T19:33:13.544Z,22.55
2018-11-22T19:35:44.862Z,23.02
2018-11-22T19:38:13.771Z,21.25
2018-11-22T19:40:43.614Z,23.42
2018-11-22T19:43:12.970Z,18.40
2018-11-22T19:45:43.477Z,16.62
2018-11-22T19:48:12.470Z,20.92
2018-11-22T19:50:41.488Z,20.70
2018-11-22T19:53:12.018Z,20.37
2018-11-22T19:55:41.182Z,19.98
2018-11-22T19:58:11.400Z,19.67
2018-11-22T20:00:40.514Z,21.68
2018-11-22T20:03:15.857Z,20.75
2018-11-22T20:05:45.090Z,16.23
2018-11-22T20:08:17.157Z,17.30
2018-11-22T20:10:46.610Z,19.30
2018-11-22T20:13:15.697Z,17.90
2018-11-22T20:15:45.058Z,18.25
2018-11-22T20:18:14.079Z,16.00
2018-11-22T20:20:45.654Z,16.05
2018-11-22T20:23:12.000Z,16.37
2018-11-22T20:25:40.994Z,15.75
2018-11-22T20:28:09.985Z,31.02
2018-11-22T20:30:41.524Z,40.52
2018-11-22T20:33:10.427Z,33.80
2018-11-22T20:35:39.353Z,26.75
2018-11-22T20:38:08.697Z,25.50
2018-11-22T20:40:37.759Z,23.95
2018-11-22T20:43:06.713Z,23.25
2018-11-22T20:45:40.732Z,24.12
2018-11-22T20:48:06.753Z,24.67
2018-11-22T20:50:42.130Z,20.43
2018-11-22T20:53:11.068Z,19.77
2018-11-22T20:55:40.441Z,18.23
2018-11-22T20:58:09.349Z,18.62
2018-11-22T21:00:39.753Z,17.98
2018-11-22T21:03:08.776Z,16.50
2018-11-22T21:05:37.786Z,16.73
2018-11-22T21:08:06.807Z,17.23
2018-11-22T21:10:35.945Z,17.45
2018-11-22T21:13:04.831Z,17.42
2018-11-22T21:15:34.444Z,17.87
2018-11-22T21:18:04.733Z,16.67
2018-11-22T21:20:36.130Z,19.35
2018-11-22T21:23:05.011Z,17.27
2018-11-22T21:25:33.972Z,17.20
2018-11-22T21:28:02.861Z,16.02
2018-11-22T21:30:34.057Z,15.53
2018-11-22T21:33:03.390Z,15.43
2018-11-22T21:35:32.822Z,15.98
2018-11-22T21:38:02.574Z,15.38
2018-11-22T21:40:32.031Z,16.42
2018-11-22T21:43:00.899Z,17.02
2018-11-22T21:45:30.395Z,17.30
2018-11-22T21:47:59.354Z,16.52
2018-11-22T21:50:28.826Z,16.65
2018-11-22T21:52:57.737Z,17.75
2018-11-22T21:55:28.165Z,18.60
2018-11-22T21:57:58.295Z,18.00
2018-11-22T22:00:31.061Z,16.57
2018-11-22T22:03:01.552Z,16.15
2018-11-22T22:05:30.437Z,17.23
2018-11-22T22:07:59.385Z,17.42
2018-11-22T22:10:28.269Z,17.23
2018-11-22T22:12:57.392Z,18.02
2018-11-22T22:15:27.793Z,17.80
2018-11-22T22:17:56.794Z,18.27
2018-11-22T22:20:28.326Z,18.80
2018-11-22T22:22:57.210Z,20.80
2018-11-22T22:25:32.582Z,22.13
2018-11-22T22:28:01.922Z,23.35
2018-11-22T22:30:32.275Z,23.00
2018-11-22T22:33:02.702Z,21.65
2018-11-22T22:35:31.598Z,21.15
2018-11-22T22:38:00.517Z,21.35
2018-11-22T22:40:30.175Z,22.10
2018-11-22T22:42:59.505Z,20.35
2018-11-22T22:45:29.522Z,21.57
2018-11-22T22:47:58.379Z,21.60
2018-11-22T22:50:28.559Z,22.70
2018-11-22T22:52:58.539Z,20.88
2018-11-22T22:55:27.940Z,21.73
2018-11-22T22:57:56.794Z,22.48
2018-11-22T23:00:31.903Z,23.07
2018-11-22T23:03:02.253Z,25.85
2018-11-22T23:05:31.708Z,24.60
2018-11-22T23:08:00.642Z,24.63
2018-11-22T23:10:29.488Z,28.00
2018-11-22T23:12:59.327Z,31.87
2018-11-22T23:15:29.209Z,33.83
2018-11-22T23:17:58.083Z,28.60
2018-11-22T23:20:28.314Z,26.68
2018-11-22T23:22:57.238Z,28.60
2018-11-22T23:25:27.230Z,27.48
2018-11-22T23:27:56.170Z,27.62
2018-11-22T23:30:26.353Z,25.92
2018-11-22T23:32:58.449Z,22.98
2018-11-22T23:35:27.360Z,21.20
2018-11-22T23:37:56.549Z,21.70
2018-11-22T23:40:26.767Z,21.27
2018-11-22T23:42:55.934Z,21.95
2018-11-22T23:45:26.391Z,22.48
2018-11-22T23:47:55.247Z,22.07
2018-11-22T23:50:25.551Z,21.95
2018-11-22T23:52:55.588Z,20.10
2018-11-22T23:55:24.583Z,20.68
2018-11-22T23:57:53.654Z,19.75
